sensor_id;sensor_type;location;lat;lon;timestamp;pressure;altitude;pressure_sealevel;temperature;humidity
60049;BME280;66154;45.544;6.756;2024-02-26T00:03:21;85471.56;;;2.32;61.39
60049;BME280;66154;45.544;6.756;2024-02-26T00:08:21;85469.06;;;2.29;61.21
60049;BME280;66154;45.544;6.756;2024-02-26T00:13:22;85452.03;;;2.28;60.37
60049;BME280;66154;45.544;6.756;2024-02-26T00:18:22;85442.50;;;2.25;66.13
60049;BME280;66154;45.544;6.756;2024-02-26T00:23:23;85440.41;;;2.20;61.37
60049;BME280;66154;45.544;6.756;2024-02-26T00:28:24;85428.59;;;2.19;61.45
60049;BME280;66154;45.544;6.756;2024-02-26T00:33:29;85419.38;;;2.18;61.39
60049;BME280;66154;45.544;6.756;2024-02-26T00:38:29;85409.72;;;2.18;60.63
60049;BME280;66154;45.544;6.756;2024-02-26T00:43:30;85406.00;;;2.19;62.44
60049;BME280;66154;45.544;6.756;2024-02-26T00:48:30;85406.00;;;2.19;60.85
60049;BME280;66154;45.544;6.756;2024-02-26T00:53:31;85400.81;;;2.19;62.44
60049;BME280;66154;45.544;6.756;2024-02-26T00:58:32;85395.63;;;2.19;61.30
60049;BME280;66154;45.544;6.756;2024-02-26T01:03:32;85390.53;;;2.16;60.16
60049;BME280;66154;45.544;6.756;2024-02-26T01:08:33;85379.84;;;2.14;61.41
60049;BME280;66154;45.544;6.756;2024-02-26T01:13:35;85378.69;;;2.15;62.55
60049;BME280;66154;45.544;6.756;2024-02-26T01:18:36;85372.06;;;2.14;63.04
60049;BME280;66154;45.544;6.756;2024-02-26T01:23:37;85369.16;;;2.12;62.74
60049;BME280;66154;45.544;6.756;2024-02-26T01:28:37;85361.06;;;2.10;60.93
60049;BME280;66154;45.544;6.756;2024-02-26T01:33:38;85366.25;;;2.10;63.41
60049;BME280;66154;45.544;6.756;2024-02-26T01:38:38;85369.16;;;2.12;62.17
60049;BME280;66154;45.544;6.756;2024-02-26T01:43:39;85355.78;;;2.13;60.69
60049;BME280;66154;45.544;6.756;2024-02-26T01:48:43;85356.41;;;2.17;62.53
60049;BME280;66154;45.544;6.756;2024-02-26T01:53:44;85356.31;;;2.21;65.03
60049;BME280;66154;45.544;6.756;2024-02-26T01:58:45;85362.97;;;2.22;61.65
60049;BME280;66154;45.544;6.756;2024-02-26T02:03:45;85353.22;;;2.26;59.91
60049;BME280;66154;45.544;6.756;2024-02-26T02:08:46;85362.38;;;2.30;61.36
60049;BME280;66154;45.544;6.756;2024-02-26T02:13:47;85360.41;;;2.34;61.21
60049;BME280;66154;45.544;6.756;2024-02-26T02:18:47;85350.34;;;2.36;60.21
60049;BME280;66154;45.544;6.756;2024-02-26T02:23:48;85357.72;;;2.38;61.53
60049;BME280;66154;45.544;6.756;2024-02-26T02:28:49;85348.06;;;2.38;62.36
60049;BME280;66154;45.544;6.756;2024-02-26T02:33:50;85338.03;;;2.40;61.57
60049;BME280;66154;45.544;6.756;2024-02-26T02:38:51;85342.47;;;2.40;62.74
60049;BME280;66154;45.544;6.756;2024-02-26T02:43:52;85343.94;;;2.41;60.50
60049;BME280;66154;45.544;6.756;2024-02-26T02:48:52;85341.66;;;2.43;62.30
60049;BME280;66154;45.544;6.756;2024-02-26T02:53:53;85350.88;;;2.44;62.36
60049;BME280;66154;45.544;6.756;2024-02-26T02:58:54;85353.06;;;2.45;61.76
60049;BME280;66154;45.544;6.756;2024-02-26T03:03:54;85357.53;;;2.45;60.39
60049;BME280;66154;45.544;6.756;2024-02-26T03:08:55;85360.84;;;2.45;60.96
60049;BME280;66154;45.544;6.756;2024-02-26T03:13:55;85362.31;;;2.46;61.75
60049;BME280;66154;45.544;6.756;2024-02-26T03:18:56;85363.00;;;2.47;61.38
60049;BME280;66154;45.544;6.756;2024-02-26T03:23:56;85374.84;;;2.48;62.69
60049;BME280;66154;45.544;6.756;2024-02-26T03:28:57;85363.75;;;2.47;61.61
60049;BME280;66154;45.544;6.756;2024-02-26T03:33:58;85362.31;;;2.46;63.27
60049;BME280;66154;45.544;6.756;2024-02-26T03:38:58;85369.78;;;2.44;63.08
60049;BME280;66154;45.544;6.756;2024-02-26T03:43:59;85374.22;;;2.44;62.33
60049;BME280;66154;45.544;6.756;2024-02-26T03:48:59;85365.00;;;2.43;63.12
60049;BME280;66154;45.544;6.756;2024-02-26T03:54:00;85368.72;;;2.42;63.98
60049;BME280;66154;45.544;6.756;2024-02-26T03:59:01;85369.13;;;2.40;64.51
60049;BME280;66154;45.544;6.756;2024-02-26T04:04:02;85380.25;;;2.41;63.98
60049;BME280;66154;45.544;6.756;2024-02-26T04:09:03;85378.78;;;2.40;64.59
60049;BME280;66154;45.544;6.756;2024-02-26T04:14:04;85393.59;;;2.39;64.05
60049;BME280;66154;45.544;6.756;2024-02-26T04:19:06;85399.19;;;2.38;65.03
60049;BME280;66154;45.544;6.756;2024-02-26T04:24:07;85417.75;;;2.36;64.90
60049;BME280;66154;45.544;6.756;2024-02-26T04:29:07;85416.00;;;2.33;64.40
60049;BME280;66154;45.544;6.756;2024-02-26T04:34:08;85423.16;;;2.29;63.98
60049;BME280;66154;45.544;6.756;2024-02-26T04:39:09;85430.59;;;2.27;65.32
60049;BME280;66154;45.544;6.756;2024-02-26T04:44:10;85437.00;;;2.23;64.94
60049;BME280;66154;45.544;6.756;2024-02-26T04:49:10;85432.66;;;2.20;64.62
60049;BME280;66154;45.544;6.756;2024-02-26T04:54:11;85429.41;;;2.16;65.58
60049;BME280;66154;45.544;6.756;2024-02-26T04:59:11;85430.53;;;2.15;64.59
60049;BME280;66154;45.544;6.756;2024-02-26T05:04:12;85436.97;;;2.10;67.37
60049;BME280;66154;45.544;6.756;2024-02-26T05:09:13;85445.72;;;2.00;68.80
60049;BME280;66154;45.544;6.756;2024-02-26T05:14:14;85439.97;;;1.93;66.80
60049;BME280;66154;45.544;6.756;2024-02-26T05:19:14;85442.91;;;1.95;66.28
60049;BME280;66154;45.544;6.756;2024-02-26T05:24:15;85430.41;;;1.90;67.17
60049;BME280;66154;45.544;6.756;2024-02-26T05:29:17;85430.19;;;1.84;75.17
60049;BME280;66154;45.544;6.756;2024-02-26T05:34:18;85423.28;;;1.77;67.19
60049;BME280;66154;45.544;6.756;2024-02-26T05:39:18;85420.00;;;1.77;67.31
60049;BME280;66154;45.544;6.756;2024-02-26T05:44:22;85417.50;;;1.73;61.89
60049;BME280;66154;45.544;6.756;2024-02-26T05:49:23;85407.63;;;1.68;66.86
60049;BME280;66154;45.544;6.756;2024-02-26T05:54:23;85402.03;;;1.70;66.31
60049;BME280;66154;45.544;6.756;2024-02-26T05:59:24;85408.03;;;1.67;66.45
60049;BME280;66154;45.544;6.756;2024-02-26T06:04:24;85408.75;;;1.67;66.43
60049;BME280;66154;45.544;6.756;2024-02-26T06:09:25;85406.97;;;1.64;72.72
60049;BME280;66154;45.544;6.756;2024-02-26T06:14:25;85412.00;;;1.55;71.14
60049;BME280;66154;45.544;6.756;2024-02-26T06:19:26;85406.03;;;1.42;67.45
60049;BME280;66154;45.544;6.756;2024-02-26T06:24:26;85400.28;;;1.35;67.32
60049;BME280;66154;45.544;6.756;2024-02-26T06:29:27;85399.53;;;1.34;68.25
60049;BME280;66154;45.544;6.756;2024-02-26T06:34:27;85410.22;;;1.36;66.35
60049;BME280;66154;45.544;6.756;2024-02-26T06:39:28;85412.06;;;1.36;67.34
60049;BME280;66154;45.544;6.756;2024-02-26T06:44:28;85415.72;;;1.38;67.74
60049;BME280;66154;45.544;6.756;2024-02-26T06:49:32;85430.84;;;1.40;67.04
60049;BME280;66154;45.544;6.756;2024-02-26T06:54:33;85423.41;;;1.42;65.76
60049;BME280;66154;45.544;6.756;2024-02-26T06:59:33;85436.75;;;1.40;64.48
60049;BME280;66154;45.544;6.756;2024-02-26T07:04:34;85431.59;;;1.40;67.59
60049;BME280;66154;45.544;6.756;2024-02-26T07:09:35;85433.03;;;1.41;67.53
60049;BME280;66154;45.544;6.756;2024-02-26T07:14:35;85440.00;;;1.44;66.78
60049;BME280;66154;45.544;6.756;2024-02-26T07:19:37;85442.50;;;1.48;65.65
60049;BME280;66154;45.544;6.756;2024-02-26T07:24:38;85438.78;;;1.49;67.12
60049;BME280;66154;45.544;6.756;2024-02-26T07:29:38;85447.19;;;1.53;67.23
60049;BME280;66154;45.544;6.756;2024-02-26T07:34:39;85441.22;;;1.56;65.54
60049;BME280;66154;45.544;6.756;2024-02-26T07:39:41;85437.06;;;1.58;66.87
60049;BME280;66154;45.544;6.756;2024-02-26T07:44:42;85428.50;;;1.61;66.92
60049;BME280;66154;45.544;6.756;2024-02-26T07:49:43;85430.69;;;1.63;67.47
60049;BME280;66154;45.544;6.756;2024-02-26T07:54:44;85432.22;;;1.60;67.50
60049;BME280;66154;45.544;6.756;2024-02-26T07:59:44;85448.50;;;1.61;67.60
60049;BME280;66154;45.544;6.756;2024-02-26T08:04:49;85438.38;;;1.66;67.25
60049;BME280;66154;45.544;6.756;2024-02-26T08:09:50;85429.72;;;1.73;67.32
60049;BME280;66154;45.544;6.756;2024-02-26T08:14:51;85424.03;;;1.78;65.04
60049;BME280;66154;45.544;6.756;2024-02-26T08:19:53;85442.91;;;1.78;66.76
60049;BME280;66154;45.544;6.756;2024-02-26T08:24:53;85445.56;;;1.75;67.21
60049;BME280;66154;45.544;6.756;2024-02-26T08:29:54;85436.56;;;1.79;67.35
60049;BME280;66154;45.544;6.756;2024-02-26T08:34:54;85449.06;;;1.84;66.96
60049;BME280;66154;45.544;6.756;2024-02-26T08:39:55;85442.16;;;1.94;66.43
60049;BME280;66154;45.544;6.756;2024-02-26T08:44:56;85451.44;;;2.08;65.99
60049;BME280;66154;45.544;6.756;2024-02-26T08:49:56;85452.41;;;2.14;66.05
60049;BME280;66154;45.544;6.756;2024-02-26T08:54:57;85468.19;;;2.19;63.69
60049;BME280;66154;45.544;6.756;2024-02-26T08:59:58;85468.84;;;2.23;66.43
60049;BME280;66154;45.544;6.756;2024-02-26T09:04:58;85458.69;;;2.29;65.34
60049;BME280;66154;45.544;6.756;2024-02-26T09:09:59;85462.56;;;2.37;65.13
60049;BME280;66154;45.544;6.756;2024-02-26T09:14:59;85469.75;;;2.45;65.89
60049;BME280;66154;45.544;6.756;2024-02-26T09:20:00;85472.81;;;2.56;66.34
60049;BME280;66154;45.544;6.756;2024-02-26T09:25:00;85475.00;;;2.58;65.63
60049;BME280;66154;45.544;6.756;2024-02-26T09:30:01;85476.34;;;2.62;67.17
60049;BME280;66154;45.544;6.756;2024-02-26T09:35:02;85475.97;;;2.64;65.51
60049;BME280;66154;45.544;6.756;2024-02-26T09:40:03;85470.91;;;2.73;66.56
60049;BME280;66154;45.544;6.756;2024-02-26T09:45:05;85470.22;;;2.85;66.49
60049;BME280;66154;45.544;6.756;2024-02-26T09:50:09;85475.09;;;2.96;66.08
60049;BME280;66154;45.544;6.756;2024-02-26T09:55:13;85480.00;;;3.06;65.42
60049;BME280;66154;45.544;6.756;2024-02-26T10:00:17;85468.91;;;3.18;65.48
60049;BME280;66154;45.544;6.756;2024-02-26T10:05:19;85454.91;;;3.28;64.59
60049;BME280;66154;45.544;6.756;2024-02-26T10:10:20;85458.34;;;3.38;64.39
60049;BME280;66154;45.544;6.756;2024-02-26T10:15:21;85466.25;;;3.47;64.55
60049;BME280;66154;45.544;6.756;2024-02-26T10:20:21;85463.75;;;3.56;63.93
60049;BME280;66154;45.544;6.756;2024-02-26T10:25:23;85450.97;;;3.61;64.75
60049;BME280;66154;45.544;6.756;2024-02-26T10:30:24;85452.63;;;3.68;64.33
60049;BME280;66154;45.544;6.756;2024-02-26T10:35:26;85451.06;;;3.70;62.77
60049;BME280;66154;45.544;6.756;2024-02-26T10:40:28;85461.66;;;3.76;64.73
60049;BME280;66154;45.544;6.756;2024-02-26T10:45:28;85466.22;;;3.85;64.84
60049;BME280;66154;45.544;6.756;2024-02-26T10:50:29;85460.41;;;3.93;63.85
60049;BME280;66154;45.544;6.756;2024-02-26T10:55:30;85459.16;;;3.98;63.93
60049;BME280;66154;45.544;6.756;2024-02-26T11:00:33;85454.88;;;4.04;62.45
60049;BME280;66154;45.544;6.756;2024-02-26T11:05:34;85444.78;;;4.06;64.82
60049;BME280;66154;45.544;6.756;2024-02-26T11:10:36;85433.03;;;4.14;64.73
60049;BME280;66154;45.544;6.756;2024-02-26T11:15:37;85434.56;;;4.24;65.05
60049;BME280;66154;45.544;6.756;2024-02-26T11:20:40;85423.50;;;4.32;63.57
60049;BME280;66154;45.544;6.756;2024-02-26T11:25:41;85418.47;;;4.38;63.59
60049;BME280;66154;45.544;6.756;2024-02-26T11:30:46;85417.09;;;4.46;64.41
60049;BME280;66154;45.544;6.756;2024-02-26T11:35:47;85410.50;;;4.54;63.48
60049;BME280;66154;45.544;6.756;2024-02-26T11:40:48;85409.75;;;4.66;64.78
60049;BME280;66154;45.544;6.756;2024-02-26T11:45:50;85402.34;;;4.86;64.68
60049;BME280;66154;45.544;6.756;2024-02-26T11:50:53;85389.91;;;5.12;64.31
60049;BME280;66154;45.544;6.756;2024-02-26T12:01:39;85370.03;;;5.67;63.65
60049;BME280;66154;45.544;6.756;2024-02-26T12:11:48;85350.44;;;6.20;62.80
60049;BME280;66154;45.544;6.756;2024-02-26T12:16:50;85336.53;;;6.41;62.76
60049;BME280;66154;45.544;6.756;2024-02-26T12:21:52;85330.56;;;6.68;62.10
60049;BME280;66154;45.544;6.756;2024-02-26T12:26:55;85319.38;;;6.85;61.39
60049;BME280;66154;45.544;6.756;2024-02-26T12:31:56;85318.31;;;7.01;62.13
60049;BME280;66154;45.544;6.756;2024-02-26T12:36:57;85311.06;;;7.05;62.49
60049;BME280;66154;45.544;6.756;2024-02-26T12:41:58;85311.50;;;7.03;62.38
60049;BME280;66154;45.544;6.756;2024-02-26T12:47:03;85308.41;;;7.14;61.78
60049;BME280;66154;45.544;6.756;2024-02-26T12:52:05;85299.94;;;7.28;62.17
60049;BME280;66154;45.544;6.756;2024-02-26T12:57:06;85286.66;;;7.50;61.60
60049;BME280;66154;45.544;6.756;2024-02-26T13:02:08;85275.72;;;8.07;63.61
60049;BME280;66154;45.544;6.756;2024-02-26T13:07:09;85273.72;;;8.93;64.47
60049;BME280;66154;45.544;6.756;2024-02-26T13:12:09;85267.38;;;9.93;66.32
60049;BME280;66154;45.544;6.756;2024-02-26T13:17:11;85266.81;;;10.89;60.65
60049;BME280;66154;45.544;6.756;2024-02-26T13:22:12;85264.22;;;10.69;63.56
60049;BME280;66154;45.544;6.756;2024-02-26T13:27:21;85263.28;;;10.72;64.67
60049;BME280;66154;45.544;6.756;2024-02-26T13:32:22;85269.34;;;10.78;63.75
60049;BME280;66154;45.544;6.756;2024-02-26T13:37:22;85269.06;;;10.51;62.44
60049;BME280;66154;45.544;6.756;2024-02-26T13:42:23;85275.81;;;10.17;62.29
60049;BME280;66154;45.544;6.756;2024-02-26T13:47:23;85284.63;;;9.99;62.55
60049;BME280;66154;45.544;6.756;2024-02-26T13:52:25;85292.28;;;9.83;60.43
60049;BME280;66154;45.544;6.756;2024-02-26T13:57:26;85280.63;;;10.04;61.43
60049;BME280;66154;45.544;6.756;2024-02-26T14:02:27;85288.94;;;10.57;58.04
60049;BME280;66154;45.544;6.756;2024-02-26T14:07:27;85297.56;;;11.04;63.94
60049;BME280;66154;45.544;6.756;2024-02-26T14:12:28;85295.38;;;11.79;67.24
60049;BME280;66154;45.544;6.756;2024-02-26T14:17:28;85311.19;;;12.63;65.37
60049;BME280;66154;45.544;6.756;2024-02-26T14:22:29;85317.03;;;13.59;70.57
60049;BME280;66154;45.544;6.756;2024-02-26T14:27:30;85314.47;;;14.31;69.00
60049;BME280;66154;45.544;6.756;2024-02-26T14:32:31;85310.56;;;14.60;71.41
60049;BME280;66154;45.544;6.756;2024-02-26T14:37:36;85315.66;;;14.41;64.96
60049;BME280;66154;45.544;6.756;2024-02-26T14:42:36;85300.50;;;13.59;61.46
60049;BME280;66154;45.544;6.756;2024-02-26T14:47:37;85310.09;;;12.81;62.13
60049;BME280;66154;45.544;6.756;2024-02-26T14:52:38;85317.81;;;12.06;59.85
60049;BME280;66154;45.544;6.756;2024-02-26T14:57:39;85318.50;;;11.44;59.81
60049;BME280;66154;45.544;6.756;2024-02-26T15:02:39;85329.53;;;10.96;60.54
60049;BME280;66154;45.544;6.756;2024-02-26T15:07:40;85319.66;;;10.51;60.55
60049;BME280;66154;45.544;6.756;2024-02-26T15:12:41;85318.09;;;10.19;61.79
60049;BME280;66154;45.544;6.756;2024-02-26T15:17:41;85308.91;;;9.80;61.59
60049;BME280;66154;45.544;6.756;2024-02-26T15:22:42;85310.41;;;9.37;61.45
60049;BME280;66154;45.544;6.756;2024-02-26T15:27:43;85319.66;;;9.03;61.01
60049;BME280;66154;45.544;6.756;2024-02-26T15:32:43;85330.09;;;8.74;61.21
60049;BME280;66154;45.544;6.756;2024-02-26T15:37:44;85324.78;;;8.45;61.42
60049;BME280;66154;45.544;6.756;2024-02-26T15:42:45;85341.97;;;8.13;60.96
60049;BME280;66154;45.544;6.756;2024-02-26T15:47:46;85346.34;;;7.84;61.49
60049;BME280;66154;45.544;6.756;2024-02-26T15:52:48;85366.22;;;7.58;61.47
60049;BME280;66154;45.544;6.756;2024-02-26T15:57:48;85355.41;;;7.32;61.07
60049;BME280;66154;45.544;6.756;2024-02-26T16:02:49;85344.44;;;7.01;60.88
60049;BME280;66154;45.544;6.756;2024-02-26T16:07:55;85355.06;;;6.79;61.20
60049;BME280;66154;45.544;6.756;2024-02-26T16:13:00;85347.69;;;6.60;61.49
60049;BME280;66154;45.544;6.756;2024-02-26T16:18:01;85364.78;;;6.42;61.54
60049;BME280;66154;45.544;6.756;2024-02-26T16:23:02;85369.00;;;6.22;61.24
60049;BME280;66154;45.544;6.756;2024-02-26T16:28:06;85384.75;;;6.00;61.23
60049;BME280;66154;45.544;6.756;2024-02-26T16:33:07;85398.88;;;5.81;61.74
60049;BME280;66154;45.544;6.756;2024-02-26T16:38:07;85401.84;;;5.62;61.59
60049;BME280;66154;45.544;6.756;2024-02-26T16:43:08;85407.59;;;5.47;61.68
60049;BME280;66154;45.544;6.756;2024-02-26T16:48:08;85416.75;;;5.30;61.37
60049;BME280;66154;45.544;6.756;2024-02-26T16:53:09;85420.03;;;5.13;62.01
60049;BME280;66154;45.544;6.756;2024-02-26T16:58:09;85434.66;;;4.98;62.26
60049;BME280;66154;45.544;6.756;2024-02-26T17:03:10;85448.91;;;4.84;61.62
60049;BME280;66154;45.544;6.756;2024-02-26T17:08:11;85450.66;;;4.66;61.77
60049;BME280;66154;45.544;6.756;2024-02-26T17:13:12;85455.91;;;4.53;62.01
60049;BME280;66154;45.544;6.756;2024-02-26T17:18:13;85467.38;;;4.43;62.49
60049;BME280;66154;45.544;6.756;2024-02-26T17:23:16;85479.91;;;4.35;62.04
60049;BME280;66154;45.544;6.756;2024-02-26T17:28:17;85484.59;;;4.28;63.55
60049;BME280;66154;45.544;6.756;2024-02-26T17:33:18;85477.41;;;4.19;62.78
60049;BME280;66154;45.544;6.756;2024-02-26T17:38:19;85488.16;;;4.09;62.98
60049;BME280;66154;45.544;6.756;2024-02-26T17:43:19;85497.00;;;3.99;63.07
60049;BME280;66154;45.544;6.756;2024-02-26T17:48:20;85508.34;;;3.92;62.19
60049;BME280;66154;45.544;6.756;2024-02-26T17:53:22;85506.69;;;3.86;62.39
60049;BME280;66154;45.544;6.756;2024-02-26T17:58:23;85508.34;;;3.80;62.54
60049;BME280;66154;45.544;6.756;2024-02-26T18:03:23;85504.81;;;3.74;62.23
60049;BME280;66154;45.544;6.756;2024-02-26T18:08:24;85509.06;;;3.67;62.16
60049;BME280;66154;45.544;6.756;2024-02-26T18:13:24;85517.06;;;3.60;62.00
60049;BME280;66154;45.544;6.756;2024-02-26T18:18:25;85525.06;;;3.53;62.46
60049;BME280;66154;45.544;6.756;2024-02-26T18:23:29;85532.75;;;3.44;62.29
60049;BME280;66154;45.544;6.756;2024-02-26T18:28:29;85534.81;;;3.37;63.06
60049;BME280;66154;45.544;6.756;2024-02-26T18:33:30;85543.59;;;3.27;61.78
60049;BME280;66154;45.544;6.756;2024-02-26T18:38:31;85536.81;;;3.17;61.83
60049;BME280;66154;45.544;6.756;2024-02-26T18:43:31;85538.47;;;3.11;62.15
60049;BME280;66154;45.544;6.756;2024-02-26T18:48:32;85549.38;;;3.06;61.77
60049;BME280;66154;45.544;6.756;2024-02-26T18:53:32;85564.31;;;3.02;62.25
60049;BME280;66154;45.544;6.756;2024-02-26T18:58:33;85565.53;;;2.97;62.35
60049;BME280;66154;45.544;6.756;2024-02-26T19:03:34;85574.13;;;2.94;62.76
60049;BME280;66154;45.544;6.756;2024-02-26T19:08:34;85572.75;;;2.90;62.88
60049;BME280;66154;45.544;6.756;2024-02-26T19:13:37;85580.63;;;2.86;63.65
60049;BME280;66154;45.544;6.756;2024-02-26T19:18:39;85588.84;;;2.85;61.88
60049;BME280;66154;45.544;6.756;2024-02-26T19:23:40;85595.25;;;2.80;62.02
60049;BME280;66154;45.544;6.756;2024-02-26T19:28:40;85599.41;;;2.78;62.53
60049;BME280;66154;45.544;6.756;2024-02-26T19:33:44;85602.06;;;2.74;62.66
60049;BME280;66154;45.544;6.756;2024-02-26T19:38:47;85610.34;;;2.69;62.64
60049;BME280;66154;45.544;6.756;2024-02-26T19:43:47;85608.97;;;2.64;62.79
60049;BME280;66154;45.544;6.756;2024-02-26T19:48:48;85609.06;;;2.61;62.69
60049;BME280;66154;45.544;6.756;2024-02-26T19:53:49;85602.81;;;2.58;62.99
60049;BME280;66154;45.544;6.756;2024-02-26T19:58:50;85618.47;;;2.55;65.89
60049;BME280;66154;45.544;6.756;2024-02-26T20:03:50;85628.59;;;2.49;62.16
60049;BME280;66154;45.544;6.756;2024-02-26T20:08:51;85634.28;;;2.44;63.25
60049;BME280;66154;45.544;6.756;2024-02-26T20:13:52;85628.44;;;2.40;61.94
60049;BME280;66154;45.544;6.756;2024-02-26T20:18:52;85632.22;;;2.36;61.36
60049;BME280;66154;45.544;6.756;2024-02-26T20:23:53;85639.69;;;2.34;62.24
60049;BME280;66154;45.544;6.756;2024-02-26T20:28:54;85646.44;;;2.31;62.92
60049;BME280;66154;45.544;6.756;2024-02-26T20:33:54;85656.16;;;2.27;62.64
60049;BME280;66154;45.544;6.756;2024-02-26T20:38:55;85651.84;;;2.21;63.04
60049;BME280;66154;45.544;6.756;2024-02-26T20:43:56;85660.44;;;2.18;62.25
60049;BME280;66154;45.544;6.756;2024-02-26T20:48:58;85653.44;;;2.15;62.66
60049;BME280;66154;45.544;6.756;2024-02-26T20:53:58;85657.25;;;2.10;62.17
60049;BME280;66154;45.544;6.756;2024-02-26T20:59:00;85650.69;;;2.06;61.54
60049;BME280;66154;45.544;6.756;2024-02-26T21:04:00;85655.13;;;2.05;62.42
60049;BME280;66154;45.544;6.756;2024-02-26T21:09:01;85663.22;;;2.07;62.18
60049;BME280;66154;45.544;6.756;2024-02-26T21:14:04;85651.81;;;2.05;62.67
60049;BME280;66154;45.544;6.756;2024-02-26T21:19:04;85662.56;;;2.03;61.12
60049;BME280;66154;45.544;6.756;2024-02-26T21:24:06;85680.06;;;1.99;61.59
60049;BME280;66154;45.544;6.756;2024-02-26T21:29:07;85660.53;;;1.95;64.34
60049;BME280;66154;45.544;6.756;2024-02-26T21:34:07;85664.34;;;1.90;63.44
60049;BME280;66154;45.544;6.756;2024-02-26T21:39:08;85671.78;;;1.88;61.76
60049;BME280;66154;45.544;6.756;2024-02-26T21:44:11;85691.75;;;1.88;61.82
60049;BME280;66154;45.544;6.756;2024-02-26T21:49:11;85686.59;;;1.88;62.37
60049;BME280;66154;45.544;6.756;2024-02-26T21:54:12;85676.22;;;1.88;62.07
60049;BME280;66154;45.544;6.756;2024-02-26T21:59:13;85681.41;;;1.88;61.55
60049;BME280;66154;45.544;6.756;2024-02-26T22:04:14;85669.59;;;1.87;62.06
60049;BME280;66154;45.544;6.756;2024-02-26T22:09:14;85671.44;;;1.86;62.32
60049;BME280;66154;45.544;6.756;2024-02-26T22:14:15;85672.97;;;1.83;62.06
60049;BME280;66154;45.544;6.756;2024-02-26T22:19:15;85674.25;;;1.75;62.84
60049;BME280;66154;45.544;6.756;2024-02-26T22:24:18;85672.47;;;1.72;62.02
60049;BME280;66154;45.544;6.756;2024-02-26T22:29:19;85668.47;;;1.68;61.50
60049;BME280;66154;45.544;6.756;2024-02-26T22:34:19;85664.09;;;1.65;63.00
60049;BME280;66154;45.544;6.756;2024-02-26T22:39:20;85677.53;;;1.60;61.50
60049;BME280;66154;45.544;6.756;2024-02-26T22:44:22;85677.53;;;1.60;63.27
60049;BME280;66154;45.544;6.756;2024-02-26T22:49:24;85689.31;;;1.61;61.97
60049;BME280;66154;45.544;6.756;2024-02-26T22:54:24;85684.88;;;1.61;62.28
60049;BME280;66154;45.544;6.756;2024-02-26T22:59:26;85690.06;;;1.61;62.52
60049;BME280;66154;45.544;6.756;2024-02-26T23:04:27;85677.91;;;1.58;64.29
60049;BME280;66154;45.544;6.756;2024-02-26T23:09:27;85674.59;;;1.58;61.23
60049;BME280;66154;45.544;6.756;2024-02-26T23:14:28;85687.56;;;1.58;62.92
60049;BME280;66154;45.544;6.756;2024-02-26T23:19:29;85697.16;;;1.57;63.17
60049;BME280;66154;45.544;6.756;2024-02-26T23:24:31;85692.31;;;1.59;62.33
60049;BME280;66154;45.544;6.756;2024-02-26T23:29:32;85693.06;;;1.60;63.25
60049;BME280;66154;45.544;6.756;2024-02-26T23:34:33;85703.78;;;1.58;62.04
60049;BME280;66154;45.544;6.756;2024-02-26T23:39:33;85702.69;;;1.59;61.99
60049;BME280;66154;45.544;6.756;2024-02-26T23:44:34;85693.06;;;1.60;62.78
60049;BME280;66154;45.544;6.756;2024-02-26T23:49:34;85711.91;;;1.60;63.12
60049;BME280;66154;45.544;6.756;2024-02-26T23:54:35;85713.03;;;1.59;62.65
60049;BME280;66154;45.544;6.756;2024-02-26T23:59:36;85720.41;;;1.61;63.10
